Time;durP1;ratioP1;P1;durP2;ratioP2;P2;SDS_P1;SDS_P2;PMS_P1;PMS_P2;Temp;Humidity;BMP_temperature;BMP_pressure;BME280_temperature;BME280_humidity;BME280_pressure;Samples;Min_cycle;Max_cycle;Signal;HPM_P1;HPM_P2
2023/10/11 00:03:52;;;;;;;5.35;2.30;;;;;;;;;;10434990;28;21041;-76
2023/10/11 00:08:54;;;;;;;3.53;2.70;;;;;;;;;;10410161;28;20300;-76
2023/10/11 00:13:55;;;;;;;4.60;2.33;;;;;;;;;;10405449;28;20215;-77
2023/10/11 00:18:56;;;;;;;5.47;2.63;;;;;;;;;;10428751;28;20257;-76
2023/10/11 00:23:57;;;;;;;4.63;3.10;;;;;;;;;;10424003;28;20966;-77
2023/10/11 00:29:00;;;;;;;3.78;2.83;;;;;;;;;;10390643;28;20719;-76
2023/10/11 00:34:03;;;;;;;3.13;2.90;;;;;;;;;;10425595;28;20206;-76
2023/10/11 00:39:07;;;;;;;7.47;2.42;;;;;;;;;;10426982;28;20215;-75
2023/10/11 00:44:08;;;;;;;5.35;2.40;;;;;;;;;;10395447;28;20277;-77
2023/10/11 00:49:11;;;;;;;5.00;2.88;;;;;;;;;;10422634;28;20229;-76
2023/10/11 00:54:15;;;;;;;2.83;2.22;;;;;;;;;;10418518;28;20215;-75
2023/10/11 00:59:21;;;;;;;2.72;2.22;;;;;;;;;;10404164;28;20302;-76
2023/10/11 01:04:25;;;;;;;1.95;1.85;;;;;;;;;;10426134;28;20234;-76
2023/10/11 01:09:28;;;;;;;4.03;2.25;;;;;;;;;;10388368;28;20207;-76
2023/10/11 01:14:36;;;;;;;2.08;1.98;;;;;;;;;;10425452;28;20214;-76
2023/10/11 01:19:37;;;;;;;2.63;2.20;;;;;;;;;;10428222;28;20214;-76
2023/10/11 01:24:41;;;;;;;6.63;2.72;;;;;;;;;;10408455;28;20576;-75
2023/10/11 01:29:43;;;;;;;2.30;2.15;;;;;;;;;;10420114;28;20575;-76
2023/10/11 01:34:44;;;;;;;2.35;2.20;;;;;;;;;;10391680;28;20210;-76
2023/10/11 01:39:48;;;;;;;3.70;2.25;;;;;;;;;;10390740;28;20227;-76
2023/10/11 01:44:49;;;;;;;2.78;2.30;;;;;;;;;;10440023;28;20214;-77
2023/10/11 01:49:52;;;;;;;2.03;1.92;;;;;;;;;;10420770;28;20298;-76
2023/10/11 01:54:56;;;;;;;2.75;2.53;;;;;;;;;;10384470;28;20206;-75
2023/10/11 01:59:58;;;;;;;2.75;2.50;;;;;;;;;;9811582;28;20304;-75
2023/10/11 02:05:04;;;;;;;3.00;2.30;;;;;;;;;;9792644;28;20910;-74
2023/10/11 02:10:12;;;;;;;2.78;2.50;;;;;;;;;;9787461;28;20211;-74
2023/10/11 02:15:21;;;;;;;2.35;2.15;;;;;;;;;;9826888;28;22006;-75
2023/10/11 02:20:22;;;;;;;4.75;2.63;;;;;;;;;;9823291;28;20234;-76
2023/10/11 02:25:24;;;;;;;3.60;2.10;;;;;;;;;;9784315;28;21985;-74
2023/10/11 02:30:25;;;;;;;5.22;2.15;;;;;;;;;;9793452;28;20229;-75
2023/10/11 02:35:27;;;;;;;4.05;2.30;;;;;;;;;;9834220;28;20246;-77
2023/10/11 02:40:30;;;;;;;2.15;1.90;;;;;;;;;;9852757;28;20214;-77
2023/10/11 02:45:33;;;;;;;2.15;1.85;;;;;;;;;;9786933;28;20253;-75
2023/10/11 02:50:36;;;;;;;2.88;1.98;;;;;;;;;;9793965;28;21730;-75
2023/10/11 02:55:38;;;;;;;2.97;1.92;;;;;;;;;;9823889;28;20222;-75
2023/10/11 03:00:44;;;;;;;4.57;1.75;;;;;;;;;;9818400;28;20320;-76
2023/10/11 03:05:45;;;;;;;3.50;2.58;;;;;;;;;;9765609;28;20262;-76
2023/10/11 03:10:53;;;;;;;2.35;2.15;;;;;;;;;;9791069;28;20328;-75
2023/10/11 03:15:56;;;;;;;2.80;2.60;;;;;;;;;;9808347;28;20337;-76
2023/10/11 03:21:16;;;;;;;3.90;2.40;;;;;;;;;;9791518;28;21436;-75
2023/10/11 03:26:31;;;;;;;4.50;2.40;;;;;;;;;;9767211;28;20241;-75
2023/10/11 03:31:34;;;;;;;1.98;1.60;;;;;;;;;;9786799;28;20223;-75
2023/10/11 03:36:43;;;;;;;4.13;2.05;;;;;;;;;;9782902;28;20227;-77
2023/10/11 03:41:47;;;;;;;6.07;1.85;;;;;;;;;;9757626;28;20233;-75
2023/10/11 03:46:48;;;;;;;3.47;2.30;;;;;;;;;;9799451;28;21793;-76
2023/10/11 03:51:49;;;;;;;3.13;1.92;;;;;;;;;;9907989;28;20219;-75
2023/10/11 03:56:53;;;;;;;4.38;1.70;;;;;;;;;;10416237;28;20207;-77
2023/10/11 04:01:54;;;;;;;2.40;2.30;;;;;;;;;;10430242;28;20963;-77
2023/10/11 04:07:01;;;;;;;3.25;1.90;;;;;;;;;;10403353;28;20653;-76
2023/10/11 04:12:04;;;;;;;3.53;2.25;;;;;;;;;;10409179;28;20214;-76
2023/10/11 04:17:05;;;;;;;2.90;2.00;;;;;;;;;;10417441;28;20229;-75
2023/10/11 04:22:12;;;;;;;2.72;2.47;;;;;;;;;;10402676;28;20281;-75
2023/10/11 04:27:45;;;;;;;1.58;1.55;;;;;;;;;;10390765;28;20298;-77
2023/10/11 04:32:41;;;;;;;3.30;2.17;;;;;;;;;;10403608;28;20260;-77
2023/10/11 04:37:51;;;;;;;4.50;1.75;;;;;;;;;;10430986;28;20280;-76
2023/10/11 04:43:05;;;;;;;3.60;2.00;;;;;;;;;;10430562;28;20217;-77
2023/10/11 04:48:06;;;;;;;2.10;1.60;;;;;;;;;;10431044;28;20914;-77
2023/10/11 04:53:07;;;;;;;2.20;1.75;;;;;;;;;;10430449;28;20219;-76
2023/10/11 04:58:08;;;;;;;3.83;2.20;;;;;;;;;;10423587;28;20222;-77
2023/10/11 05:03:09;;;;;;;1.63;1.50;;;;;;;;;;10407121;28;20277;-77
2023/10/11 05:08:47;;;;;;;3.22;1.52;;;;;;;;;;10405970;28;20783;-77
2023/10/11 05:13:59;;;;;;;1.75;1.70;;;;;;;;;;10417488;28;20905;-77
2023/10/11 05:19:05;;;;;;;2.13;1.92;;;;;;;;;;10415335;28;20247;-75
2023/10/11 05:24:14;;;;;;;1.73;1.63;;;;;;;;;;10392174;28;20242;-75
2023/10/11 05:29:31;;;;;;;2.72;2.40;;;;;;;;;;10394679;28;20566;-77
2023/10/11 05:34:51;;;;;;;2.60;2.00;;;;;;;;;;10395666;28;20619;-76
2023/10/11 05:50:52;;;;;;;3.25;2.28;;;;;;;;;;10409888;28;21958;-76
2023/10/11 05:55:53;;;;;;;3.00;1.63;;;;;;;;;;10223971;28;20697;-76
2023/10/11 06:00:55;;;;;;;1.38;1.38;;;;;;;;;;9716470;28;21595;-75
2023/10/11 06:05:56;;;;;;;3.08;1.55;;;;;;;;;;9734060;28;21422;-75
2023/10/11 06:10:57;;;;;;;1.92;1.80;;;;;;;;;;9737911;28;20798;-76
2023/10/11 06:16:02;;;;;;;3.08;2.28;;;;;;;;;;9721920;28;21345;-76
2023/10/11 06:21:05;;;;;;;2.03;1.63;;;;;;;;;;9750215;28;21157;-76
2023/10/11 06:31:33;;;;;;;2.55;1.95;;;;;;;;;;9781610;28;21193;-77
2023/10/11 06:36:35;;;;;;;3.80;1.58;;;;;;;;;;9801905;28;20748;-75
2023/10/11 06:41:45;;;;;;;2.03;1.83;;;;;;;;;;9793176;28;21522;-77
2023/10/11 06:46:50;;;;;;;2.15;1.95;;;;;;;;;;9792524;28;21454;-75
2023/10/11 06:51:51;;;;;;;2.47;2.33;;;;;;;;;;9799089;28;21751;-75
2023/10/11 06:56:52;;;;;;;6.13;2.05;;;;;;;;;;9812279;28;20221;-75
2023/10/11 07:01:54;;;;;;;1.88;1.63;;;;;;;;;;9851791;28;20452;-75
2023/10/11 07:06:55;;;;;;;1.98;1.80;;;;;;;;;;9832383;28;20558;-75
2023/10/11 07:17:33;;;;;;;3.10;1.70;;;;;;;;;;9714944;28;21257;-75
2023/10/11 07:22:39;;;;;;;1.98;1.80;;;;;;;;;;9784019;28;20761;-75
2023/10/11 07:27:41;;;;;;;1.88;1.60;;;;;;;;;;9751789;28;21046;-77
2023/10/11 07:32:45;;;;;;;3.78;1.98;;;;;;;;;;9771281;28;20623;-75
2023/10/11 07:37:46;;;;;;;1.45;1.45;;;;;;;;;;9736960;28;21278;-75
2023/10/11 07:42:47;;;;;;;1.85;1.75;;;;;;;;;;9759116;28;21433;-75
2023/10/11 07:47:51;;;;;;;4.10;1.77;;;;;;;;;;9918798;28;20213;-76
2023/10/11 07:52:52;;;;;;;6.53;1.90;;;;;;;;;;10423252;28;20245;-76
2023/10/11 07:57:59;;;;;;;4.45;1.88;;;;;;;;;;10429610;28;20264;-76
2023/10/11 08:03:04;;;;;;;1.98;1.77;;;;;;;;;;10404352;28;20809;-75
2023/10/11 08:08:05;;;;;;;5.35;2.20;;;;;;;;;;10410325;28;20207;-76
2023/10/11 08:13:14;;;;;;;2.50;1.63;;;;;;;;;;10401865;28;20222;-76
2023/10/11 08:18:16;;;;;;;2.00;1.63;;;;;;;;;;10404665;28;20326;-77
2023/10/11 08:23:28;;;;;;;1.85;1.50;;;;;;;;;;10406528;28;20210;-77
2023/10/11 08:28:34;;;;;;;1.52;1.35;;;;;;;;;;10423856;28;20219;-77
2023/10/11 08:33:35;;;;;;;1.58;1.38;;;;;;;;;;10394993;28;20869;-76
2023/10/11 08:38:37;;;;;;;2.15;1.73;;;;;;;;;;10392421;28;20242;-76
2023/10/11 08:43:38;;;;;;;2.67;1.90;;;;;;;;;;10401343;28;20242;-76
2023/10/11 08:48:39;;;;;;;4.70;1.67;;;;;;;;;;10409044;28;20223;-76
2023/10/11 08:53:46;;;;;;;3.42;1.40;;;;;;;;;;10414804;28;20211;-75
2023/10/11 08:58:51;;;;;;;1.33;1.23;;;;;;;;;;10393313;28;20285;-75
2023/10/11 09:04:03;;;;;;;1.63;1.20;;;;;;;;;;10396849;28;20696;-76
2023/10/11 09:09:04;;;;;;;4.70;1.65;;;;;;;;;;10421673;28;20228;-75
2023/10/11 09:14:27;;;;;;;2.90;1.92;;;;;;;;;;10420589;28;20215;-75
2023/10/11 09:19:28;;;;;;;1.95;1.77;;;;;;;;;;10397896;28;20642;-76
2023/10/11 09:24:37;;;;;;;5.13;1.60;;;;;;;;;;10408049;28;20218;-76
2023/10/11 09:29:38;;;;;;;1.60;1.50;;;;;;;;;;10386574;28;20229;-76
2023/10/11 09:34:43;;;;;;;2.40;1.40;;;;;;;;;;10405815;28;20249;-75
2023/10/11 09:39:44;;;;;;;2.15;1.42;;;;;;;;;;10385772;28;20227;-76
2023/10/11 09:44:45;;;;;;;1.88;1.77;;;;;;;;;;10417159;28;20219;-76
2023/10/11 09:49:49;;;;;;;1.40;1.40;;;;;;;;;;10057494;28;20894;-76
2023/10/11 09:54:51;;;;;;;2.20;1.30;;;;;;;;;;9965137;28;20261;-76
2023/10/11 10:00:10;;;;;;;1.98;1.45;;;;;;;;;;9923696;28;20230;-76
2023/10/11 10:05:11;;;;;;;2.13;1.58;;;;;;;;;;9960083;28;21367;-76
2023/10/11 10:10:16;;;;;;;2.55;1.67;;;;;;;;;;9784768;28;21457;-75
2023/10/11 10:15:23;;;;;;;3.45;1.50;;;;;;;;;;9720406;28;20198;-76
2023/10/11 10:20:33;;;;;;;1.65;1.40;;;;;;;;;;9725710;28;21153;-75
2023/10/11 10:25:34;;;;;;;2.50;1.88;;;;;;;;;;9708056;28;21766;-75
2023/10/11 10:30:56;;;;;;;1.48;1.38;;;;;;;;;;9711986;28;21360;-74
2023/10/11 10:36:21;;;;;;;1.38;1.27;;;;;;;;;;9674315;28;21044;-75
2023/10/11 10:41:24;;;;;;;1.98;1.70;;;;;;;;;;9690370;28;20222;-75
2023/10/11 10:46:26;;;;;;;3.47;1.75;;;;;;;;;;9690281;28;21522;-77
2023/10/11 10:51:31;;;;;;;1.65;1.60;;;;;;;;;;9684413;28;21127;-77
2023/10/11 10:56:32;;;;;;;2.17;1.40;;;;;;;;;;9691647;28;22717;-75
2023/10/11 11:01:34;;;;;;;3.00;1.60;;;;;;;;;;9661461;28;21669;-75
2023/10/11 11:06:38;;;;;;;1.33;1.33;;;;;;;;;;9693204;28;21134;-75
2023/10/11 11:11:39;;;;;;;1.40;1.30;;;;;;;;;;9694151;28;20308;-75
2023/10/11 11:16:44;;;;;;;3.03;1.08;;;;;;;;;;9695460;28;21598;-74
2023/10/11 11:21:45;;;;;;;1.52;1.42;;;;;;;;;;9691086;28;21970;-75
2023/10/11 11:26:47;;;;;;;4.60;1.23;;;;;;;;;;9694888;28;21532;-76
2023/10/11 11:31:52;;;;;;;2.15;1.10;;;;;;;;;;9720863;28;21514;-76
2023/10/11 11:36:57;;;;;;;1.10;1.10;;;;;;;;;;9684166;28;20218;-75
2023/10/11 11:41:58;;;;;;;3.55;1.45;;;;;;;;;;9743431;28;20222;-76
2023/10/11 11:47:05;;;;;;;0.90;0.90;;;;;;;;;;10264791;28;20226;-76
2023/10/11 11:52:06;;;;;;;2.75;1.50;;;;;;;;;;10423067;28;20210;-76
2023/10/11 11:57:07;;;;;;;2.40;1.15;;;;;;;;;;10392586;28;20699;-76
2023/10/11 12:02:16;;;;;;;1.33;1.30;;;;;;;;;;10414735;28;20276;-77
2023/10/11 12:07:17;;;;;;;1.88;1.25;;;;;;;;;;10384417;28;20223;-76
2023/10/11 12:12:18;;;;;;;2.65;1.30;;;;;;;;;;10387679;28;20214;-76
2023/10/11 12:17:19;;;;;;;2.35;1.25;;;;;;;;;;10407753;28;20636;-76
2023/10/11 12:22:22;;;;;;;2.35;1.15;;;;;;;;;;10427131;28;20300;-76
2023/10/11 12:27:23;;;;;;;3.35;1.13;;;;;;;;;;10406180;28;20309;-76
2023/10/11 12:32:24;;;;;;;1.48;1.38;;;;;;;;;;10391920;28;20229;-75
2023/10/11 12:37:26;;;;;;;3.08;1.20;;;;;;;;;;10425634;28;20238;-75
2023/10/11 12:42:27;;;;;;;1.23;1.23;;;;;;;;;;10405119;28;20775;-76
2023/10/11 12:47:30;;;;;;;3.58;1.80;;;;;;;;;;10423700;28;20313;-75
2023/10/11 12:52:31;;;;;;;1.00;1.00;;;;;;;;;;10413007;28;20328;-77
2023/10/11 12:57:32;;;;;;;1.42;0.90;;;;;;;;;;10416721;28;20209;-77
2023/10/11 13:02:34;;;;;;;2.05;1.13;;;;;;;;;;10441162;28;20830;-79
2023/10/11 13:07:36;;;;;;;4.22;1.10;;;;;;;;;;10405591;28;20208;-79
2023/10/11 13:12:37;;;;;;;2.55;1.25;;;;;;;;;;10390237;28;20229;-78
2023/10/11 13:17:40;;;;;;;1.90;1.23;;;;;;;;;;10413269;28;20214;-78
2023/10/11 13:22:41;;;;;;;3.33;1.52;;;;;;;;;;10390862;28;20659;-77
2023/10/11 13:27:43;;;;;;;2.35;1.60;;;;;;;;;;10419930;28;20261;-79
2023/10/11 13:32:44;;;;;;;8.38;1.38;;;;;;;;;;10403730;28;20215;-78
2023/10/11 13:37:48;;;;;;;2.95;1.55;;;;;;;;;;10392191;28;20211;-78
2023/10/11 13:42:51;;;;;;;1.58;1.15;;;;;;;;;;10375084;28;20214;-77
2023/10/11 13:47:52;;;;;;;5.32;1.48;;;;;;;;;;10354682;28;21247;-76
2023/10/11 13:52:53;;;;;;;2.40;1.75;;;;;;;;;;9768100;28;22402;-76
2023/10/11 13:57:55;;;;;;;4.00;1.60;;;;;;;;;;9773074;28;20218;-77
2023/10/11 14:03:30;;;;;;;5.40;1.60;;;;;;;;;;9772155;28;22313;-77
2023/10/11 14:08:30;;;;;;;2.45;1.15;;;;;;;;;;9787505;28;21952;-77
2023/10/11 14:13:31;;;;;;;1.75;1.58;;;;;;;;;;9769534;28;20219;-76
2023/10/11 14:18:38;;;;;;;3.22;1.40;;;;;;;;;;9782875;28;20357;-76
2023/10/11 14:23:44;;;;;;;2.47;1.48;;;;;;;;;;9790461;28;20234;-75
2023/10/11 14:28:45;;;;;;;6.13;1.35;;;;;;;;;;9813447;28;20235;-75
2023/10/11 14:33:49;;;;;;;2.78;1.50;;;;;;;;;;9772743;28;20226;-75
2023/10/11 14:38:51;;;;;;;3.15;1.42;;;;;;;;;;9767278;28;20223;-75
2023/10/11 14:43:53;;;;;;;4.43;1.42;;;;;;;;;;9794246;28;20266;-75
2023/10/11 14:48:54;;;;;;;1.48;1.38;;;;;;;;;;9741219;28;20257;-76
2023/10/11 14:53:55;;;;;;;4.57;1.20;;;;;;;;;;9781897;28;20892;-76
2023/10/11 14:58:58;;;;;;;1.52;1.40;;;;;;;;;;9785687;28;20237;-75
2023/10/11 15:04:00;;;;;;;2.38;1.38;;;;;;;;;;9781010;28;20226;-75
2023/10/11 15:09:08;;;;;;;3.83;1.50;;;;;;;;;;9766520;28;20244;-76
2023/10/11 15:14:09;;;;;;;7.93;1.30;;;;;;;;;;9721841;28;20604;-75
2023/10/11 15:19:11;;;;;;;4.65;1.30;;;;;;;;;;9767210;28;20345;-75
2023/10/11 15:24:13;;;;;;;8.05;1.73;;;;;;;;;;9740590;28;20230;-76
2023/10/11 15:29:14;;;;;;;3.40;1.20;;;;;;;;;;9713433;28;20230;-76
2023/10/11 15:34:18;;;;;;;6.32;1.33;;;;;;;;;;9749319;28;20874;-76
2023/10/11 15:39:19;;;;;;;3.40;1.50;;;;;;;;;;9804929;28;20231;-77
2023/10/11 15:44:21;;;;;;;4.70;1.63;;;;;;;;;;10437064;28;20225;-77
2023/10/11 15:49:22;;;;;;;4.72;1.55;;;;;;;;;;10435061;28;20706;-77
2023/10/11 15:54:24;;;;;;;1.80;1.30;;;;;;;;;;10432146;28;20214;-77
2023/10/11 15:59:28;;;;;;;1.98;1.33;;;;;;;;;;10431824;28;20218;-77
2023/10/11 16:04:29;;;;;;;5.53;1.23;;;;;;;;;;10399251;28;20214;-78
2023/10/11 16:09:31;;;;;;;1.67;1.58;;;;;;;;;;10388099;28;20640;-77
2023/10/11 16:14:32;;;;;;;2.47;1.20;;;;;;;;;;10410604;28;20272;-76
2023/10/11 16:19:33;;;;;;;3.92;1.80;;;;;;;;;;10434318;28;20271;-77
2023/10/11 16:24:35;;;;;;;4.70;1.73;;;;;;;;;;10411567;28;20230;-77
2023/10/11 16:29:37;;;;;;;1.92;1.35;;;;;;;;;;10410986;28;20747;-78
2023/10/11 16:34:42;;;;;;;4.72;1.50;;;;;;;;;;10425624;28;20221;-76
2023/10/11 16:39:44;;;;;;;5.15;1.40;;;;;;;;;;10396258;28;20281;-78
2023/10/11 16:44:46;;;;;;;2.30;1.30;;;;;;;;;;10410872;28;20221;-76
2023/10/11 16:49:48;;;;;;;2.13;1.90;;;;;;;;;;10406592;28;20220;-77
2023/10/11 16:54:49;;;;;;;3.75;2.95;;;;;;;;;;10413087;28;20325;-77
2023/10/11 16:59:51;;;;;;;3.20;2.65;;;;;;;;;;10427216;28;20739;-76
2023/10/11 17:04:52;;;;;;;1.67;1.58;;;;;;;;;;10432572;28;20938;-77
2023/10/11 17:09:53;;;;;;;3.25;1.75;;;;;;;;;;10407392;28;20215;-77
2023/10/11 17:14:54;;;;;;;3.83;1.75;;;;;;;;;;10424106;28;20326;-77
2023/10/11 17:19:56;;;;;;;3.17;1.30;;;;;;;;;;10423990;28;20310;-78
2023/10/11 17:24:59;;;;;;;2.10;1.70;;;;;;;;;;10411125;28;20223;-76
2023/10/11 17:30:00;;;;;;;2.80;1.73;;;;;;;;;;10398760;28;20211;-77
2023/10/11 17:35:05;;;;;;;2.15;1.33;;;;;;;;;;10394259;28;20211;-76
2023/10/11 17:40:10;;;;;;;1.52;1.40;;;;;;;;;;10419743;28;20272;-77
2023/10/11 17:45:16;;;;;;;3.00;1.50;;;;;;;;;;9948210;28;20226;-76
2023/10/11 17:50:17;;;;;;;2.00;1.60;;;;;;;;;;9719008;28;21486;-77
2023/10/11 17:55:25;;;;;;;7.20;1.60;;;;;;;;;;9745189;28;21093;-77
2023/10/11 18:00:27;;;;;;;3.95;1.88;;;;;;;;;;9738905;28;21518;-75
2023/10/11 18:05:28;;;;;;;1.85;1.75;;;;;;;;;;9726527;28;20979;-77
2023/10/11 18:10:29;;;;;;;3.92;1.70;;;;;;;;;;9712699;28;21494;-77
2023/10/11 18:15:32;;;;;;;2.58;1.65;;;;;;;;;;9707041;28;21197;-78
2023/10/11 18:20:36;;;;;;;2.40;1.88;;;;;;;;;;9706717;28;21836;-77
2023/10/11 18:25:37;;;;;;;2.53;1.75;;;;;;;;;;9708145;28;21387;-79
2023/10/11 18:30:39;;;;;;;6.70;1.73;;;;;;;;;;9701910;28;20873;-77
2023/10/11 18:35:41;;;;;;;2.78;2.25;;;;;;;;;;9696324;28;20219;-77
2023/10/11 18:40:45;;;;;;;1.85;1.60;;;;;;;;;;9680323;28;20709;-77
2023/10/11 18:45:47;;;;;;;2.35;1.80;;;;;;;;;;9732559;28;20226;-78
2023/10/11 18:50:49;;;;;;;5.75;1.63;;;;;;;;;;9682940;28;20684;-76
2023/10/11 18:55:50;;;;;;;4.20;1.58;;;;;;;;;;9682719;28;20752;-79
2023/10/11 19:00:51;;;;;;;5.18;1.77;;;;;;;;;;9709175;28;21903;-78
2023/10/11 19:05:52;;;;;;;3.95;1.73;;;;;;;;;;9666720;28;20352;-77
2023/10/11 19:10:53;;;;;;;4.90;3.03;;;;;;;;;;9698174;28;21167;-78
2023/10/11 19:15:54;;;;;;;3.10;2.80;;;;;;;;;;9739117;28;21250;-77
2023/10/11 19:21:04;;;;;;;3.58;1.92;;;;;;;;;;9730908;28;21279;-79
2023/10/11 19:26:06;;;;;;;3.30;1.77;;;;;;;;;;9744975;28;20872;-77
2023/10/11 19:31:08;;;;;;;5.05;1.80;;;;;;;;;;9737308;28;20327;-77
2023/10/11 19:36:16;;;;;;;1.35;1.25;;;;;;;;;;9905270;28;20219;-83
2023/10/11 19:41:17;;;;;;;1.92;1.80;;;;;;;;;;10408585;28;20229;-81
2023/10/11 19:46:18;;;;;;;2.53;1.55;;;;;;;;;;10404272;28;20240;-77
2023/10/11 19:51:20;;;;;;;1.77;1.17;;;;;;;;;;10424570;28;20309;-77
2023/10/11 19:56:24;;;;;;;1.80;1.70;;;;;;;;;;10407906;28;20235;-78
2023/10/11 20:01:25;;;;;;;1.60;1.35;;;;;;;;;;10409043;28;20602;-79
2023/10/11 20:06:26;;;;;;;2.70;0.95;;;;;;;;;;10412876;28;20221;-78
2023/10/11 20:11:33;;;;;;;2.30;1.27;;;;;;;;;;10407916;28;20244;-78
2023/10/11 20:16:34;;;;;;;2.60;1.42;;;;;;;;;;10439607;28;20215;-77
2023/10/11 20:21:36;;;;;;;3.05;1.48;;;;;;;;;;10407775;28;20302;-78
2023/10/11 20:26:37;;;;;;;4.82;1.38;;;;;;;;;;10422740;28;20222;-78
2023/10/11 20:31:38;;;;;;;4.00;1.33;;;;;;;;;;10422087;28;20210;-79
2023/10/11 20:36:40;;;;;;;7.28;1.23;;;;;;;;;;10403722;28;20207;-79
2023/10/11 20:41:41;;;;;;;1.00;1.00;;;;;;;;;;10422831;28;20287;-78
2023/10/11 20:46:42;;;;;;;4.65;1.77;;;;;;;;;;10423615;28;20309;-78
2023/10/11 20:51:43;;;;;;;2.60;1.20;;;;;;;;;;10417242;28;20228;-78
2023/10/11 20:56:48;;;;;;;3.28;0.95;;;;;;;;;;10400523;28;20218;-78
2023/10/11 21:01:49;;;;;;;3.13;0.95;;;;;;;;;;10398727;28;20230;-78
2023/10/11 21:06:50;;;;;;;2.20;1.20;;;;;;;;;;10426687;28;20223;-79
2023/10/11 21:11:51;;;;;;;2.92;1.48;;;;;;;;;;10415547;28;20215;-78
2023/10/11 21:16:55;;;;;;;5.82;1.25;;;;;;;;;;10405896;28;20214;-78
2023/10/11 21:21:56;;;;;;;2.40;1.40;;;;;;;;;;10409282;28;20218;-79
2023/10/11 21:26:57;;;;;;;3.55;1.10;;;;;;;;;;10405207;28;20230;-78
2023/10/11 21:31:59;;;;;;;3.90;1.08;;;;;;;;;;10416178;28;20280;-78
2023/10/11 21:37:00;;;;;;;1.30;1.20;;;;;;;;;;10406846;28;20210;-78
2023/10/11 21:42:02;;;;;;;3.75;1.30;;;;;;;;;;10393109;28;20222;-78
2023/10/11 21:47:03;;;;;;;1.92;1.40;;;;;;;;;;10416371;28;20677;-78
2023/10/11 21:52:04;;;;;;;2.80;1.55;;;;;;;;;;10408969;28;20214;-78
2023/10/11 21:57:05;;;;;;;1.17;0.88;;;;;;;;;;10431157;28;20245;-78
2023/10/11 22:02:06;;;;;;;4.28;1.35;;;;;;;;;;10420568;28;20329;-79
2023/10/11 22:07:07;;;;;;;2.05;1.15;;;;;;;;;;10419050;28;20218;-78
2023/10/11 22:12:08;;;;;;;3.22;1.38;;;;;;;;;;10409588;28;20217;-78
2023/10/11 22:17:09;;;;;;;1.45;1.20;;;;;;;;;;9767260;28;21910;-77
2023/10/11 22:22:10;;;;;;;2.08;1.05;;;;;;;;;;9767872;28;20233;-77
2023/10/11 22:27:11;;;;;;;2.97;1.60;;;;;;;;;;9771204;28;22018;-76
2023/10/11 22:32:13;;;;;;;2.30;1.10;;;;;;;;;;9748252;28;20227;-76
2023/10/11 22:37:14;;;;;;;3.80;1.20;;;;;;;;;;9750303;28;21837;-77
2023/10/11 22:42:16;;;;;;;2.33;1.60;;;;;;;;;;9760441;28;21849;-77
2023/10/11 22:47:19;;;;;;;4.38;1.50;;;;;;;;;;9745472;28;22052;-76
2023/10/11 22:52:21;;;;;;;5.03;1.20;;;;;;;;;;9741218;28;20243;-77
2023/10/11 22:57:22;;;;;;;4.50;1.13;;;;;;;;;;9738357;28;20222;-77
2023/10/11 23:02:25;;;;;;;3.63;1.38;;;;;;;;;;9769307;28;20219;-78
2023/10/11 23:07:26;;;;;;;2.80;1.30;;;;;;;;;;9769292;28;20369;-76
2023/10/11 23:12:27;;;;;;;1.52;1.05;;;;;;;;;;9737977;28;20226;-77
2023/10/11 23:17:29;;;;;;;1.73;1.25;;;;;;;;;;9736755;28;21609;-77
2023/10/11 23:22:30;;;;;;;4.05;1.15;;;;;;;;;;9722689;28;21443;-77
2023/10/11 23:27:31;;;;;;;6.65;1.17;;;;;;;;;;9729730;28;20230;-77
2023/10/11 23:32:35;;;;;;;4.47;1.75;;;;;;;;;;9955436;28;20773;-78
2023/10/11 23:37:47;;;;;;;3.70;1.05;;;;;;;;;;10411627;28;21814;-77
2023/10/11 23:42:48;;;;;;;3.67;1.15;;;;;;;;;;10421211;28;20226;-78
2023/10/11 23:47:49;;;;;;;2.15;1.27;;;;;;;;;;10434224;28;20313;-77
2023/10/11 23:53:01;;;;;;;3.55;1.27;;;;;;;;;;10415232;28;20696;-78
2023/10/11 23:58:12;;;;;;;1.98;1.35;;;;;;;;;;10411724;28;20700;-77
